Time;durP1;ratioP1;P1;durP2;ratioP2;P2;SDS_P1;SDS_P2;PMS_P1;PMS_P2;Temp;Humidity;BMP_temperature;BMP_pressure;BME280_temperature;BME280_humidity;BME280_pressure;Samples;Min_cycle;Max_cycle;Signal;HPM_P1;HPM_P2
2022/12/27 00:01:53;;;;;;;16.45;6.13;;;;;;;2.27;100.00;102133.16;5031143;28;20072;-78
2022/12/27 00:04:19;;;;;;;13.82;6.43;;;;;;;2.28;100.00;102142.66;5028119;28;20111;-78
2022/12/27 00:07:11;;;;;;;15.93;6.35;;;;;;;2.29;100.00;102149.56;5032443;28;20053;-78
2022/12/27 00:09:45;;;;;;;15.02;5.93;;;;;;;2.31;100.00;102144.34;5042870;28;20037;-78
2022/12/27 00:12:11;;;;;;;16.50;6.63;;;;;;;2.33;100.00;102151.22;5048794;28;20025;-78
2022/12/27 00:14:38;;;;;;;12.55;6.22;;;;;;;2.34;100.00;102152.94;5052749;28;20104;-78
2022/12/27 00:17:19;;;;;;;13.73;5.82;;;;;;;2.37;100.00;102157.22;5048800;28;20648;-78
2022/12/27 00:19:44;;;;;;;12.35;5.40;;;;;;;2.35;100.00;102157.25;5034880;28;20436;-78
2022/12/27 00:22:10;;;;;;;16.50;6.03;;;;;;;2.35;100.00;102153.78;5024002;28;20025;-75
2022/12/27 00:24:35;;;;;;;15.45;5.90;;;;;;;2.32;100.00;102154.69;5029736;28;20037;-78
2022/12/27 00:27:03;;;;;;;15.45;5.78;;;;;;;2.33;100.00;102153.81;5031610;28;20113;-78
2022/12/27 00:29:29;;;;;;;17.42;5.70;;;;;;;2.34;100.00;102152.06;5029664;28;20060;-78
2022/12/27 00:31:57;;;;;;;11.15;5.68;;;;;;;2.34;100.00;102163.31;5021745;28;20038;-76
2022/12/27 00:34:23;;;;;;;15.05;5.63;;;;;;;2.31;100.00;102150.38;5038380;28;20032;-76
2022/12/27 00:36:49;;;;;;;17.10;6.10;;;;;;;2.33;100.00;102161.59;5037914;28;20380;-79
2022/12/27 00:39:31;;;;;;;18.02;6.10;;;;;;;2.34;100.00;102152.94;5026078;28;20033;-76
2022/12/27 00:41:57;;;;;;;;;;;;;;;2.41;100.00;102148.50;5022950;28;20073;-76
2022/12/27 00:44:22;;;;;;;11.88;5.47;;;;;;;2.36;100.00;102155.50;5033506;28;19944;-76
2022/12/27 00:46:50;;;;;;;16.50;6.22;;;;;;;2.34;100.00;102147.72;5035238;28;20040;-76
2022/12/27 00:49:15;;;;;;;19.13;6.40;;;;;;;2.35;100.00;102151.19;5032299;28;20029;-79
2022/12/27 00:51:47;;;;;;;16.77;5.85;;;;;;;2.33;100.00;102156.41;5029965;28;20042;-78
2022/12/27 00:54:15;;;;;;;10.48;5.40;;;;;;;2.33;100.00;102153.81;5025974;28;20029;-78
2022/12/27 00:56:56;;;;;;;15.27;5.60;;;;;;;2.37;100.00;102163.25;5032314;28;20028;-79
2022/12/27 00:59:22;;;;;;;15.18;5.38;;;;;;;2.33;100.00;102168.53;5032216;28;20026;-78
2022/12/27 01:02:10;;;;;;;15.05;6.15;;;;;;;2.38;100.00;102169.31;5033575;28;20526;-76
2022/12/27 01:04:36;;;;;;;13.30;5.38;;;;;;;2.37;100.00;102172.78;5048877;28;20048;-76
2022/12/27 01:10:41;;;;;;;15.90;5.93;;;;;;;2.38;100.00;102182.28;5026879;28;20548;-76
2022/12/27 01:13:26;;;;;;;12.23;5.60;;;;;;;2.41;100.00;102188.31;5032190;28;20044;-79
2022/12/27 01:15:54;;;;;;;13.77;5.22;;;;;;;2.41;100.00;102195.25;5050747;28;20024;-76
2022/12/27 01:18:20;;;;;;;16.10;5.40;;;;;;;2.41;100.00;102190.91;5048418;28;20108;-78
2022/12/27 01:20:46;;;;;;;14.50;5.70;;;;;;;2.42;100.00;102195.22;5044979;28;20112;-79
2022/12/27 01:23:12;;;;;;;12.70;5.78;;;;;;;2.41;100.00;102196.09;5031439;28;20087;-79
2022/12/27 01:25:37;;;;;;;15.30;5.70;;;;;;;2.41;100.00;102201.31;5051343;28;20472;-78
2022/12/27 01:28:03;;;;;;;17.02;5.70;;;;;;;2.40;100.00;102204.78;5036040;28;20034;-77
2022/12/27 01:30:28;;;;;;;16.80;6.03;;;;;;;2.42;100.00;102202.16;5038284;28;20052;-79
2022/12/27 01:32:57;;;;;;;17.38;5.53;;;;;;;2.41;100.00;102206.50;5032032;28;20036;-78
2022/12/27 01:35:37;;;;;;;11.93;5.20;;;;;;;2.42;100.00;102213.41;5029909;28;20882;-78
2022/12/27 01:38:11;;;;;;;14.73;5.88;;;;;;;2.42;100.00;102215.16;5032219;28;20048;-76
2022/12/27 01:40:37;;;;;;;12.70;5.57;;;;;;;2.40;100.00;102204.78;5027754;28;20041;-76
2022/12/27 01:43:15;;;;;;;13.45;5.70;;;;;;;2.43;100.00;102209.91;5050169;28;20017;-76
2022/12/27 01:46:05;;;;;;;13.07;5.47;;;;;;;2.40;100.00;102209.97;5035937;28;20043;-76
2022/12/27 01:48:39;;;;;;;16.75;6.15;;;;;;;2.39;100.00;102205.63;5024366;28;20456;-76
2022/12/27 01:51:12;;;;;;;13.27;5.40;;;;;;;2.39;100.00;102208.22;5022276;28;20091;-76
2022/12/27 01:53:42;;;;;;;;;;;;;;;2.44;100.00;102206.44;5020964;28;20025;-76
2022/12/27 01:56:28;;;;;;;15.57;5.65;;;;;;;2.42;100.00;102222.94;5040254;28;19913;-76
2022/12/27 01:58:58;;;;;;;12.38;4.78;;;;;;;2.41;100.00;102235.06;5029775;28;20040;-76
2022/12/27 02:01:51;;;;;;;14.95;5.53;;;;;;;2.39;100.00;102230.75;5029211;28;20025;-76
2022/12/27 02:05:09;;;;;;;15.00;5.28;;;;;;;2.44;100.00;102241.94;5025855;28;20712;-76
2022/12/27 02:07:52;;;;;;;15.80;5.95;;;;;;;2.43;100.00;102237.63;5029473;28;20067;-76
2022/12/27 02:10:21;;;;;;;13.00;5.05;;;;;;;2.44;100.00;102240.19;5036101;28;20021;-76
2022/12/27 02:12:46;;;;;;;17.63;5.28;;;;;;;2.44;100.00;102232.41;5049198;28;20110;-76
2022/12/27 02:15:15;;;;;;;15.90;5.50;;;;;;;2.46;100.00;102230.63;5045298;28;20492;-76
2022/12/27 02:17:40;;;;;;;13.63;5.80;;;;;;;2.47;100.00;102241.88;5030587;28;20382;-76
2022/12/27 02:20:13;;;;;;;11.63;5.25;;;;;;;2.47;100.00;102242.75;5034333;28;20033;-76
2022/12/27 02:26:06;;;;;;;12.70;5.57;;;;;;;2.47;100.00;102242.75;5045939;28;20110;-76
2022/12/27 02:29:16;;;;;;;11.45;5.00;;;;;;;2.49;100.00;102240.13;5039673;28;20064;-76
2022/12/27 02:31:58;;;;;;;16.33;5.22;;;;;;;2.49;100.00;102245.31;5017671;28;20042;-76
2022/12/27 02:34:28;;;;;;;14.97;6.00;;;;;;;2.49;100.00;102243.56;5008608;28;20033;-76
2022/12/27 02:37:00;;;;;;;15.02;4.95;;;;;;;2.49;100.00;102250.50;5058656;28;20104;-76
2022/12/27 02:39:27;;;;;;;;;;;;;;;2.55;100.00;102254.72;5016389;28;20036;-76
2022/12/27 02:54:32;;;;;;;12.30;4.80;;;;;;;2.49;100.00;102255.72;5032088;28;20044;-76
2022/12/27 02:57:35;;;;;;;15.27;4.72;;;;;;;2.52;100.00;102245.25;5028001;28;20426;-76
2022/12/27 03:03:46;;;;;;;16.52;5.10;;;;;;;2.57;100.00;102245.16;5011197;28;20446;-76
2022/12/27 03:06:38;;;;;;;13.13;4.70;;;;;;;2.62;100.00;102245.94;5010226;28;20088;-76
2022/12/27 03:15:54;;;;;;;14.77;4.32;;;;;;;2.69;100.00;102231.94;5027836;28;20063;-76
2022/12/27 03:19:06;;;;;;;13.30;4.07;;;;;;;2.70;100.00;102238.84;5045255;28;20025;-76
2022/12/27 03:27:30;;;;;;;16.65;4.75;;;;;;;2.71;100.00;102261.34;5028630;28;20119;-76
2022/12/27 03:38:42;;;;;;;19.63;4.75;;;;;;;2.72;100.00;102271.72;5013417;28;20220;-76
2022/12/27 03:43:56;;;;;;;19.38;4.68;;;;;;;2.73;100.00;102285.56;5040061;28;20394;-76
2022/12/27 03:46:42;;;;;;;15.57;4.70;;;;;;;2.70;100.00;102278.69;5031334;28;20025;-76
2022/12/27 03:49:10;;;;;;;13.30;4.15;;;;;;;2.67;100.00;102281.34;5052754;28;20115;-76
2022/12/27 03:51:46;;;;;;;12.98;4.53;;;;;;;2.65;100.00;102287.44;5050891;28;20066;-76
2022/12/27 03:54:24;;;;;;;15.38;5.00;;;;;;;2.65;100.00;102287.44;5051148;28;20029;-76
2022/12/27 03:57:25;;;;;;;15.20;5.28;;;;;;;2.70;100.00;102288.22;5045809;28;20043;-76
2022/12/27 03:59:51;;;;;;;15.18;4.57;;;;;;;2.64;100.00;102290.94;5048403;28;20052;-76
2022/12/27 04:02:20;;;;;;;13.43;4.50;;;;;;;2.64;100.00;102288.34;5043269;28;20041;-76
2022/12/27 04:04:46;;;;;;;15.88;4.43;;;;;;;2.65;100.00;102292.66;5025691;28;20025;-76
2022/12/27 04:35:12;;;;;;;14.10;4.47;;;;;;;2.56;100.00;102292.81;5050429;28;20043;-76
2022/12/27 04:37:38;;;;;;;14.30;4.13;;;;;;;2.55;100.00;102296.31;5041446;28;20874;-76
2022/12/27 04:56:43;;;;;;;15.88;4.50;;;;;;;2.53;100.00;102303.25;5025924;28;20040;-76
2022/12/27 05:02:04;;;;;;;16.08;4.53;;;;;;;2.53;100.00;102313.66;5034716;28;20036;-78
2022/12/27 05:16:28;;;;;;;18.13;4.80;;;;;;;2.45;100.00;102317.25;5022694;28;20068;-76
2022/12/27 05:18:53;;;;;;;14.95;4.30;;;;;;;2.45;100.00;102312.06;5025560;28;20041;-76
2022/12/27 05:21:25;;;;;;;12.57;4.53;;;;;;;2.42;100.00;102321.63;5047377;28;20028;-76
2022/12/27 05:27:01;;;;;;;16.52;4.85;;;;;;;2.56;100.00;102324.84;5051677;28;20546;-76
2022/12/27 05:29:34;;;;;;;15.18;4.72;;;;;;;2.59;100.00;102329.13;5028813;28;20121;-76
2022/12/27 05:32:00;;;;;;;16.00;4.70;;;;;;;2.61;100.00;102333.41;5012285;28;20529;-76
2022/12/27 05:34:31;;;;;;;15.73;4.70;;;;;;;2.60;100.00;102336.03;5014556;28;20116;-76
2022/12/27 05:36:56;;;;;;;16.13;4.80;;;;;;;2.58;100.00;102343.88;5040835;28;20104;-76
2022/12/27 05:39:22;;;;;;;14.02;4.43;;;;;;;2.58;100.00;102343.00;5050213;28;20132;-76
2022/12/27 05:41:57;;;;;;;10.27;3.92;;;;;;;2.56;100.00;102349.97;5051476;28;20040;-76
2022/12/27 05:44:22;;;;;;;16.42;5.03;;;;;;;2.55;100.00;102348.25;5048981;28;20444;-76
2022/12/27 05:46:47;;;;;;;13.10;4.30;;;;;;;2.55;100.00;102358.66;5042183;28;20056;-76
2022/12/27 05:49:13;;;;;;;13.00;4.57;;;;;;;2.54;100.00;102356.94;5031058;28;20021;-76
2022/12/27 05:51:38;;;;;;;11.00;3.63;;;;;;;2.51;100.00;102363.03;5030500;28;20112;-76
2022/12/27 05:54:04;;;;;;;13.93;4.15;;;;;;;2.54;100.00;102359.53;5026072;28;20528;-76
2022/12/27 05:56:29;;;;;;;14.18;4.47;;;;;;;2.48;100.00;102373.47;5034980;28;20025;-76
2022/12/27 05:58:54;;;;;;;12.85;4.18;;;;;;;2.47;100.00;102372.63;5038988;28;20048;-76
2022/12/27 06:01:23;;;;;;;13.93;4.28;;;;;;;2.41;100.00;102380.50;5032382;28;20033;-76
2022/12/27 06:03:48;;;;;;;16.83;4.45;;;;;;;2.38;100.00;102382.28;5030029;28;20474;-76
2022/12/27 06:06:14;;;;;;;11.73;3.97;;;;;;;2.34;100.00;102381.47;5026856;28;20030;-76
2022/12/27 06:08:39;;;;;;;14.85;4.10;;;;;;;2.29;100.00;102383.28;5027720;28;20144;-76
2022/12/27 06:11:08;;;;;;;15.70;4.20;;;;;;;2.29;100.00;102382.41;5010893;28;20018;-76
2022/12/27 06:13:37;;;;;;;12.77;4.30;;;;;;;2.26;100.00;102382.47;5010157;28;20038;-76
2022/12/27 06:16:14;;;;;;;19.23;4.40;;;;;;;2.20;100.00;102391.22;5023614;28;20037;-76
2022/12/27 06:18:41;;;;;;;12.73;4.40;;;;;;;2.19;100.00;102381.69;5048246;28;20059;-76
2022/12/27 06:21:30;;;;;;;10.55;4.30;;;;;;;2.19;100.00;102381.69;5049855;28;20021;-76
2022/12/27 06:23:58;;;;;;;14.50;4.60;;;;;;;2.10;100.00;102387.03;5050119;28;20020;-76
2022/12/27 06:26:30;;;;;;;15.52;4.25;;;;;;;2.12;100.00;102382.69;5049600;28;20120;-76
2022/12/27 06:28:56;;;;;;;13.50;4.33;;;;;;;2.11;100.00;102384.41;5026575;28;20034;-76
2022/12/27 06:31:28;;;;;;;14.55;4.80;;;;;;;2.10;100.00;102379.25;5029052;28;20309;-76
2022/12/27 06:33:54;;;;;;;13.03;4.03;;;;;;;2.09;100.00;102388.78;5029895;28;20112;-76
2022/12/27 06:36:28;;;;;;;14.00;4.20;;;;;;;2.00;100.00;102393.22;5034056;28;20025;-76
2022/12/27 06:38:56;;;;;;;12.27;4.47;;;;;;;1.98;100.00;102390.63;5042489;28;20033;-76
2022/12/27 06:41:42;;;;;;;14.15;4.57;;;;;;;2.00;100.00;102380.22;5048856;28;20017;-77
2022/12/27 06:44:08;;;;;;;13.82;4.63;;;;;;;1.99;100.00;102373.31;5050222;28;20107;-76
2022/12/27 06:46:57;;;;;;;14.38;4.72;;;;;;;1.99;100.00;102388.91;5028607;28;20160;-76
2022/12/27 06:49:24;;;;;;;14.93;4.80;;;;;;;1.98;100.00;102379.41;5029528;28;20041;-76
2022/12/27 06:51:50;;;;;;;18.15;5.22;;;;;;;1.96;100.00;102383.75;5029071;28;20486;-76
2022/12/27 06:54:15;;;;;;;13.77;4.93;;;;;;;1.96;100.00;102388.94;5029938;28;20036;-76
2022/12/27 06:56:41;;;;;;;16.20;5.07;;;;;;;1.92;100.00;102387.28;5030220;28;20022;-76
2022/12/27 06:59:07;;;;;;;13.05;5.18;;;;;;;1.88;100.00;102387.31;5036800;28;20067;-76
2022/12/27 07:01:35;;;;;;;16.83;5.22;;;;;;;1.87;100.00;102384.75;5040893;28;20024;-77
2022/12/27 07:04:01;;;;;;;16.77;5.05;;;;;;;1.85;100.00;102381.31;5033656;28;20030;-76
2022/12/27 07:06:34;;;;;;;19.27;6.00;;;;;;;1.85;100.00;102381.31;5038013;28;20556;-77
2022/12/27 07:09:00;;;;;;;17.95;5.75;;;;;;;1.82;100.00;102391.72;5049937;28;20099;-76
2022/12/27 07:11:26;;;;;;;14.32;5.38;;;;;;;1.84;100.00;102393.41;5043731;28;20025;-76
2022/12/27 07:13:58;;;;;;;14.57;5.30;;;;;;;1.85;100.00;102389.94;5039042;28;20403;-76
2022/12/27 07:16:29;;;;;;;14.75;5.78;;;;;;;1.84;100.00;102390.81;5023831;28;20521;-78
2022/12/27 07:18:57;;;;;;;16.95;6.22;;;;;;;1.89;100.00;102396.81;5027885;28;20029;-76
2022/12/27 07:21:31;;;;;;;18.55;6.45;;;;;;;1.88;100.00;102402.88;5039295;28;20025;-76
2022/12/27 07:24:06;;;;;;;14.40;5.53;;;;;;;1.93;100.00;102399.38;5027227;28;20022;-77
2022/12/27 07:26:31;;;;;;;16.42;6.03;;;;;;;1.92;100.00;102406.28;5029181;28;20026;-76
2022/12/27 07:28:59;;;;;;;25.23;6.78;;;;;;;1.94;100.00;102406.28;5027133;28;20025;-76
2022/12/27 07:31:28;;;;;;;18.83;6.65;;;;;;;1.94;100.00;102407.13;5030235;28;20028;-76
2022/12/27 07:33:54;;;;;;;19.67;6.35;;;;;;;1.96;100.00;102409.69;5037219;28;20429;-76
2022/12/27 07:36:33;;;;;;;26.88;7.18;;;;;;;1.98;100.00;102415.72;5028186;28;20028;-76
2022/12/27 07:39:08;;;;;;;19.13;6.78;;;;;;;1.97;100.00;102416.59;5029561;28;20478;-77
2022/12/27 07:41:34;;;;;;;16.60;6.20;;;;;;;1.98;100.00;102413.13;5025310;28;20034;-77
2022/12/27 07:44:28;;;;;;;22.33;7.22;;;;;;;2.00;100.00;102416.56;5009810;28;20812;-77
2022/12/27 07:46:53;;;;;;;17.85;6.93;;;;;;;1.98;100.00;102418.31;5017161;28;20452;-77
2022/12/27 07:49:27;;;;;;;18.13;7.40;;;;;;;2.01;100.00;102418.31;5032731;28;20026;-77
2022/12/27 07:51:52;;;;;;;16.85;7.25;;;;;;;2.02;100.00;102420.03;5020299;28;20025;-77
2022/12/27 07:54:27;;;;;;;17.92;7.15;;;;;;;2.05;100.00;102418.25;5024578;28;20091;-77
2022/12/27 07:56:52;;;;;;;18.33;7.50;;;;;;;2.05;100.00;102410.47;5028825;28;20386;-77
2022/12/27 07:59:17;;;;;;;18.15;6.97;;;;;;;2.06;100.00;102417.38;5029615;28;20029;-77
2022/12/27 08:02:04;;;;;;;21.77;7.60;;;;;;;2.09;100.00;102421.66;5029534;28;20038;-77
2022/12/27 08:04:39;;;;;;;21.58;6.68;;;;;;;2.12;100.00;102426.81;5028966;28;20492;-76
2022/12/27 08:07:21;;;;;;;15.75;6.90;;;;;;;2.16;100.00;102431.06;5028935;28;20033;-76
2022/12/27 08:09:55;;;;;;;20.63;8.25;;;;;;;2.19;100.00;102429.28;5022737;28;20867;-76
2022/12/27 08:12:21;;;;;;;16.00;7.57;;;;;;;2.23;100.00;102430.13;5055077;28;20033;-76
2022/12/27 08:14:53;;;;;;;18.30;7.68;;;;;;;2.26;100.00;102431.81;5031897;28;20383;-76
2022/12/27 08:17:22;;;;;;;16.58;7.80;;;;;;;2.27;100.00;102442.16;5038300;28;20071;-75
2022/12/27 08:19:55;;;;;;;14.63;7.65;;;;;;;2.31;100.00;102436.06;5031978;28;20037;-75
2022/12/27 08:22:24;;;;;;;17.42;7.70;;;;;;;2.34;100.00;102443.78;5045517;28;20028;-75
2022/12/27 08:24:55;;;;;;;20.75;8.00;;;;;;;2.39;100.00;102451.53;5037757;28;20056;-75
2022/12/27 08:27:22;;;;;;;18.85;8.25;;;;;;;2.44;100.00;102449.75;5037049;28;20064;-75
2022/12/27 08:29:53;;;;;;;19.30;7.85;;;;;;;2.43;100.00;102458.41;5026620;28;20025;-75
2022/12/27 08:32:25;;;;;;;18.63;7.75;;;;;;;2.44;100.00;102455.78;5035480;28;20029;-75
2022/12/27 08:34:50;;;;;;;16.30;7.38;;;;;;;2.46;100.00;102454.03;5038232;28;20159;-75
2022/12/27 08:37:15;;;;;;;14.00;7.60;;;;;;;2.48;100.00;102457.47;5036987;28;20108;-75
2022/12/27 08:39:42;;;;;;;15.20;7.35;;;;;;;2.49;100.00;102459.19;5030406;28;20432;-75
2022/12/27 08:42:11;;;;;;;14.25;7.15;;;;;;;2.54;100.00;102447.84;5029496;28;20048;-75
2022/12/27 08:44:37;;;;;;;18.73;7.63;;;;;;;2.55;100.00;102441.78;5030192;28;20030;-77
2022/12/27 08:47:05;;;;;;;15.38;8.27;;;;;;;2.58;100.00;102433.94;5036843;28;20024;-78
2022/12/27 08:49:30;;;;;;;17.17;7.90;;;;;;;2.62;100.00;102433.00;5022014;28;20082;-76
2022/12/27 08:51:56;;;;;;;17.25;7.05;;;;;;;2.64;100.00;102428.66;5032252;28;20034;-74
2022/12/27 08:54:22;;;;;;;15.65;7.75;;;;;;;2.67;100.00;102426.00;5030000;28;20040;-77
2022/12/27 08:56:50;;;;;;;14.80;7.78;;;;;;;2.69;100.00;102432.88;5030093;28;20032;-75
2022/12/27 08:59:16;;;;;;;19.23;7.93;;;;;;;2.73;100.00;102436.28;5030776;28;20407;-78
2022/12/27 09:01:45;;;;;;;17.40;7.72;;;;;;;2.76;100.00;102438.84;5031320;28;20105;-78
2022/12/27 09:04:10;;;;;;;17.00;7.45;;;;;;;2.80;100.00;102431.00;5034344;28;20087;-76
2022/12/27 09:06:39;;;;;;;14.95;7.50;;;;;;;2.85;100.00;102446.50;5030667;28;20033;-78
2022/12/27 09:09:05;;;;;;;16.33;7.20;;;;;;;2.87;100.00;102433.50;5028843;28;20042;-78
2022/12/27 09:11:32;;;;;;;14.10;6.68;;;;;;;2.88;100.00;102436.06;5029402;28;20025;-78
2022/12/27 09:14:01;;;;;;;18.23;7.30;;;;;;;2.91;100.00;102441.22;5028750;28;20021;-78
2022/12/27 09:16:28;;;;;;;19.30;6.80;;;;;;;2.94;100.00;102435.94;5031204;28;20029;-78
2022/12/27 09:18:56;;;;;;;14.07;5.95;;;;;;;2.96;100.00;102441.97;5031336;28;20052;-78
2022/12/27 09:21:24;;;;;;;15.93;6.47;;;;;;;3.01;100.00;102445.38;5028928;28;20025;-78
2022/12/27 09:24:04;;;;;;;22.48;6.97;;;;;;;3.05;100.00;102434.03;5035553;28;20029;-78
2022/12/27 09:26:38;;;;;;;14.82;6.25;;;;;;;3.10;100.00;102437.41;5026420;28;20383;-76
2022/12/27 09:29:04;;;;;;;15.40;6.57;;;;;;;3.14;100.00;102440.81;5031986;28;20021;-76
2022/12/27 09:31:29;;;;;;;16.83;5.90;;;;;;;3.22;100.00;102435.50;5039075;28;20100;-76
2022/12/27 09:33:57;;;;;;;15.15;6.20;;;;;;;3.27;100.00;102441.47;5029396;28;20459;-76
2022/12/27 09:36:29;;;;;;;17.25;6.30;;;;;;;3.31;100.00;102449.19;5038004;28;20439;-74
2022/12/27 09:38:57;;;;;;;16.92;6.30;;;;;;;3.37;100.00;102456.00;5049586;28;20034;-77
2022/12/27 09:41:53;;;;;;;13.25;6.22;;;;;;;3.44;100.00;102452.41;5023159;28;20033;-77
2022/12/27 09:44:45;;;;;;;14.95;6.43;;;;;;;3.52;100.00;102460.06;5034921;28;20025;-77
2022/12/27 09:47:52;;;;;;;12.85;5.72;;;;;;;3.59;100.00;102462.50;5034803;28;20385;-77
2022/12/27 09:50:26;;;;;;;12.38;6.00;;;;;;;3.66;100.00;102455.47;5057636;28;20477;-77
2022/12/27 09:53:07;;;;;;;12.38;6.07;;;;;;;3.72;100.00;102458.81;5021284;28;20037;-77
2022/12/27 09:55:37;;;;;;;11.52;5.90;;;;;;;3.79;100.00;102464.75;5049415;28;20111;-77
2022/12/27 09:58:32;;;;;;;19.13;6.63;;;;;;;3.88;100.00;102461.09;5028792;28;20021;-77
2022/12/27 10:01:11;;;;;;;11.27;6.07;;;;;;;3.93;100.00;102462.72;5030618;28;20116;-77
2022/12/27 10:03:42;;;;;;;17.75;5.80;;;;;;;3.97;100.00;102458.31;5029338;28;20040;-75
2022/12/27 10:06:19;;;;;;;14.82;5.68;;;;;;;4.03;100.00;102456.44;5026949;28;20018;-75
2022/12/27 10:08:54;;;;;;;13.05;6.10;;;;;;;4.13;100.00;102464.06;5029927;28;20045;-75
2022/12/27 10:11:35;;;;;;;14.77;5.65;;;;;;;4.17;100.00;102465.72;5022542;28;20060;-75
2022/12/27 10:14:23;;;;;;;15.57;6.18;;;;;;;4.24;100.00;102462.94;5029143;28;20076;-76
2022/12/27 10:16:51;;;;;;;13.40;5.50;;;;;;;4.30;100.00;102467.16;5027648;28;20469;-76
2022/12/27 10:19:47;;;;;;;11.60;5.50;;;;;;;4.37;100.00;102460.91;5030160;28;20108;-77
2022/12/27 10:22:39;;;;;;;12.52;5.55;;;;;;;4.44;100.00;102464.25;5028745;28;20021;-76
2022/12/27 10:25:11;;;;;;;10.55;5.28;;;;;;;4.51;100.00;102460.63;5029007;28;20126;-76
2022/12/27 10:27:44;;;;;;;10.30;5.25;;;;;;;4.58;100.00;102456.97;5026995;28;20482;-76
2022/12/27 10:30:15;;;;;;;11.00;5.07;;;;;;;4.62;100.00;102454.25;5012994;28;20056;-75
2022/12/27 10:32:41;;;;;;;9.90;5.13;;;;;;;4.66;100.00;102455.03;5035163;28;20040;-76
2022/12/27 10:35:06;;;;;;;16.38;5.40;;;;;;;4.73;100.00;102456.59;5044291;28;20443;-76
2022/12/27 10:37:34;;;;;;;15.93;5.68;;;;;;;4.78;100.00;102459.97;5033358;28;20040;-76
2022/12/27 10:40:16;;;;;;;12.40;5.40;;;;;;;4.86;100.00;102452.84;5040894;28;20064;-76
2022/12/27 10:42:46;;;;;;;11.75;5.00;;;;;;;4.89;100.00;102455.38;5028849;28;20025;-79
2022/12/27 10:45:32;;;;;;;12.07;5.57;;;;;;;4.97;100.00;102455.16;5029074;28;20075;-77
2022/12/27 10:48:21;;;;;;;12.50;5.22;;;;;;;5.00;100.00;102450.72;5029273;28;20029;-77
2022/12/27 10:50:54;;;;;;;14.30;5.40;;;;;;;5.04;100.00;102439.31;5011680;28;20055;-77
2022/12/27 10:53:30;;;;;;;13.95;4.95;;;;;;;5.13;100.00;102453.03;5020495;28;20029;-76
2022/12/27 10:56:33;;;;;;;16.40;5.90;;;;;;;5.23;100.00;102462.34;5028513;28;20141;-76
2022/12/27 10:59:13;;;;;;;12.23;5.10;;;;;;;5.28;100.00;102455.25;5023390;28;20073;-77
2022/12/27 11:01:39;;;;;;;11.93;5.07;;;;;;;5.30;100.00;102456.94;5035114;28;20022;-77
2022/12/27 11:04:17;;;;;;;12.07;4.80;;;;;;;5.33;100.00;102463.81;5018239;28;20018;-77
2022/12/27 11:06:43;;;;;;;12.63;5.10;;;;;;;5.37;100.00;102459.38;5015810;28;20494;-76
2022/12/27 11:09:26;;;;;;;14.13;4.97;;;;;;;5.45;100.00;102453.03;5028512;28;20080;-77
2022/12/27 11:12:09;;;;;;;11.90;4.35;;;;;;;5.44;100.00;102451.34;5028936;28;20052;-76
2022/12/27 11:14:36;;;;;;;12.13;4.60;;;;;;;5.51;100.00;102445.03;5034804;28;20025;-77
2022/12/27 11:17:06;;;;;;;15.20;5.00;;;;;;;5.54;100.00;102441.50;5028691;28;20040;-77
2022/12/27 11:19:31;;;;;;;11.65;4.57;;;;;;;5.59;100.00;102442.22;5028920;28;20108;-77
2022/12/27 11:21:57;;;;;;;10.88;4.65;;;;;;;5.65;100.00;102442.94;5006681;28;20184;-76
2022/12/27 11:24:22;;;;;;;14.85;5.15;;;;;;;5.71;100.00;102433.22;4988784;28;20034;-76
2022/12/27 11:26:57;;;;;;;10.20;4.57;;;;;;;5.80;100.00;102440.78;4990613;28;20113;-76
2022/12/27 11:29:29;;;;;;;10.48;4.35;;;;;;;5.82;100.00;102432.00;4988399;28;20117;-77
2022/12/27 11:31:56;;;;;;;11.15;4.22;;;;;;;5.85;100.00;102433.66;4989561;28;20030;-75
2022/12/27 11:34:42;;;;;;;11.35;3.97;;;;;;;5.88;100.00;102439.66;5000480;28;20116;-77
2022/12/27 11:37:14;;;;;;;11.48;4.13;;;;;;;5.93;100.00;102439.53;5004445;28;20018;-77
2022/12/27 11:39:42;;;;;;;10.15;4.25;;;;;;;5.93;100.00;102435.19;4983092;28;20054;-76
2022/12/27 11:42:20;;;;;;;8.77;4.00;;;;;;;5.95;100.00;102427.28;4988325;28;20105;-76
2022/12/27 11:45:20;;;;;;;12.30;4.45;;;;;;;5.96;100.00;102442.06;4988814;28;20030;-76
2022/12/27 11:48:00;;;;;;;10.23;4.22;;;;;;;5.94;100.00;102431.66;4989178;28;20030;-76
2022/12/27 11:50:26;;;;;;;11.27;3.65;;;;;;;5.95;100.00;102427.28;4981733;28;20034;-75
2022/12/27 11:53:16;;;;;;;11.23;4.30;;;;;;;5.97;100.00;102431.56;5008841;28;20030;-75
2022/12/27 11:56:34;;;;;;;12.98;4.22;;;;;;;6.03;100.00;102421.88;4985843;28;20025;-76
2022/12/27 11:59:22;;;;;;;9.43;3.72;;;;;;;6.02;100.00;102415.78;4998227;28;20088;-76
2022/12/27 12:02:24;;;;;;;10.30;4.20;;;;;;;5.98;100.00;102416.75;4992998;28;20121;-79
2022/12/27 12:05:17;;;;;;;11.00;4.10;;;;;;;5.97;100.00;102417.66;4988559;28;20065;-76
2022/12/27 12:08:05;;;;;;;8.73;3.90;;;;;;;5.91;100.00;102410.00;4994537;28;20077;-76
2022/12/27 12:10:45;;;;;;;8.73;4.00;;;;;;;5.87;100.00;102408.34;4992112;28;20034;-76
2022/12/27 12:13:43;;;;;;;9.90;4.00;;;;;;;5.84;100.00;102404.06;5006386;28;20034;-76
2022/12/27 12:16:34;;;;;;;9.02;3.85;;;;;;;5.84;100.00;102403.22;5002316;28;20026;-76
2022/12/27 12:19:20;;;;;;;8.65;4.10;;;;;;;5.80;100.00;102396.38;4991843;28;20038;-76
2022/12/27 12:21:52;;;;;;;10.35;4.03;;;;;;;5.82;100.00;102391.97;4983412;28;20025;-77
2022/12/27 12:24:35;;;;;;;10.20;3.83;;;;;;;5.81;100.00;102390.25;4988583;28;20117;-75
2022/12/27 12:27:13;;;;;;;11.60;4.40;;;;;;;5.83;100.00;102393.69;4979486;28;20533;-77
2022/12/27 12:30:10;;;;;;;8.27;4.00;;;;;;;5.86;100.00;102401.41;4992668;28;20036;-77
2022/12/27 12:32:55;;;;;;;9.35;4.13;;;;;;;5.85;100.00;102404.94;4988107;28;20018;-77
2022/12/27 12:35:51;;;;;;;9.35;4.28;;;;;;;5.90;100.00;102400.47;5000275;28;20501;-78
2022/12/27 12:38:26;;;;;;;10.18;3.90;;;;;;;5.83;100.00;102386.69;4981566;28;20026;-77
2022/12/27 12:41:14;;;;;;;12.02;3.80;;;;;;;5.84;100.00;102387.53;4999722;28;20057;-76
2022/12/27 12:43:55;;;;;;;12.93;4.50;;;;;;;5.80;100.00;102386.78;5004673;28;20398;-77
2022/12/27 12:46:37;;;;;;;9.63;4.03;;;;;;;5.77;100.00;102380.78;4991980;28;20475;-76
2022/12/27 12:49:24;;;;;;;9.02;3.55;;;;;;;5.78;100.00;102378.13;4990369;28;20030;-77
2022/12/27 12:52:27;;;;;;;11.60;4.80;;;;;;;5.77;100.00;102370.34;5011471;28;20112;-78
2022/12/27 12:54:52;;;;;;;12.73;4.35;;;;;;;5.71;100.00;102357.47;4991245;28;20376;-77
2022/12/27 12:57:51;;;;;;;14.52;4.20;;;;;;;5.71;100.00;102352.25;4990545;28;20041;-78
2022/12/27 13:00:43;;;;;;;11.30;4.28;;;;;;;5.68;100.00;102341.91;4991960;28;20089;-77
2022/12/27 13:03:21;;;;;;;9.82;3.78;;;;;;;5.68;100.00;102339.28;5005977;28;20027;-77
2022/12/27 13:06:03;;;;;;;16.17;4.65;;;;;;;5.67;100.00;102333.22;4990597;28;20042;-77
2022/12/27 13:08:43;;;;;;;10.55;4.18;;;;;;;5.67;100.00;102333.22;4989990;28;20042;-77
2022/12/27 13:11:49;;;;;;;11.95;4.57;;;;;;;5.72;100.00;102320.03;4990541;28;20180;-77
2022/12/27 13:14:25;;;;;;;12.23;4.15;;;;;;;5.69;100.00;102322.72;5008442;28;20444;-77
2022/12/27 13:16:57;;;;;;;8.95;3.90;;;;;;;5.66;100.00;102316.69;4992034;28;20034;-77
2022/12/27 13:19:59;;;;;;;9.45;3.83;;;;;;;5.67;100.00;102309.72;4990943;28;20631;-78
2022/12/27 13:22:43;;;;;;;12.10;4.30;;;;;;;5.64;100.00;102307.19;4990276;28;20062;-77
2022/12/27 13:25:36;;;;;;;9.90;3.83;;;;;;;5.61;100.00;102313.38;4994758;28;20034;-77
2022/12/27 13:28:13;;;;;;;8.02;3.67;;;;;;;5.59;100.00;102309.91;5002133;28;20561;-76
2022/12/27 13:30:52;;;;;;;12.00;4.28;;;;;;;5.57;100.00;102319.56;5011452;28;20544;-77
2022/12/27 13:33:37;;;;;;;9.55;4.03;;;;;;;5.61;100.00;102307.28;5010313;28;20819;-77
2022/12/27 13:36:28;;;;;;;12.15;3.60;;;;;;;5.64;100.00;102300.22;5009167;28;20461;-77
2022/12/27 13:38:56;;;;;;;14.93;3.95;;;;;;;5.65;100.00;102288.88;4992427;28;20102;-77
2022/12/27 13:41:31;;;;;;;10.95;4.05;;;;;;;5.66;100.00;102290.59;4988957;28;20549;-77
2022/12/27 13:44:51;;;;;;;14.90;6.07;;;;;;;5.70;100.00;102274.81;4991403;28;20038;-77